DIRECCIÓN GENERAL DE AERONÁUTICA CIVIL
DIRECCIÓN METEOROLÓGICA DE CHILE
INFORMACIÓN METAR Y TAF

FIR PUERTO MONTT

Estación: SCQP
METAR SCQP 242200Z 19005KT 9000 -RA FEW002 BKN005 OVC010 09/08 Q1013=

TAF SCQP 241640Z 2418/2518 07006KT 7000 -RA BKN015 OVC040 TX11/2418Z TN06/2510Z BECMG 2500/2502 VRB02KT 3000 -DZ OVC007 BECMG 2510/2512 27006KT 9999 NSW BKN030=

Estación: SCVD
METAR SCVD 242200Z VRB02KT 9999 OVC009 07/07 Q1014=

TAF AMD SCVD 241545Z 2416/2500 VRB02KT 2500 -DZ BR BKN005 OVC020 TN07/2416Z TX10/2419Z BECMG 2418/2420 5000 -RA SCT015 OVC030=

Estación: SCJO
METAR SCJO 242200Z 00000KT 9999 BKN025 OVC030 08/06 Q1015=

TAF SCJO 241030Z 2412/2424 VRB02KT 9999 SCT030 BKN070 TNM02/2412Z TX08/2418Z TEMPO 2412/2415 3000 DZBR OVC007 BECMG 2418/2420 CAVOK=

Estación: SCTE
METAR SCTE 242200Z 17003KT 9999 BKN080 BKN200 07/03 Q1015 NOSIG=

TAF SCTE 241640Z 2418/2518 VRB02KT 9999 BKN080 TX09/2418Z TNM01/2510Z BECMG 2500/2502 SCT040 BKN100 BECMG 2503/2505 4000 BR TEMPO 2511/2515 0700 BCFG VV002 BECMG 2516/2518 9000 SCT050=

Estación: SCPQ
METAR SCPQ 242200Z AUTO 18003KT CAVOK 05/02 Q1015=

TAF SCPQ 241030Z 2412/2424 16005KT CAVOK TN00/2412Z TX07/2418Z=

Estación: SCON
METAR SCON 222000Z 24005KT 9999 SCT020 BKN200 08/02 Q1013=

TAF SCON NIL=

Estación: SCTN
METAR SCTN 242200Z AUTO VRB02KT CAVOK 05/03 Q1015=

TAF SCTN 241030Z 2412/2424 VRB02KT CAVOK TN00/2412Z TX07/2418Z=

Estación: SCFT
METAR SCFT 242200Z AUTO 06005KT 010V090 9999 03/M03 Q1018=

TAF SCFT NIL=

Estación: SCAP
METAR SCAP 242200Z AUTO 05006KT 030V090 5000 // OVC048 04/M02 Q1024=

TAF SCAP NIL=

Estación: SCMK
METAR SCMK 231700Z 00000KT 9999 SCT020 08/04 Q1019=

TAF SCMK 241030Z 2412/2424 16006KT CAVOK TN04/2412Z TX08/2418Z=

Estación: SCAS
METAR SCAS 222000Z 26008KT 9999 FEW026 SCT036 BKN100 06/02 Q1013=

TAF SCAS NIL=

Estación: SCCY
METAR SCCY 242200Z 00000KT CAVOK 02/M04 Q1020=

TAF SCCY 241030Z 2412/2424 VRB02KT 3000 BR NSC TNM06/2412Z TX03/2418Z BECMG 2414/2416 09006KT SCT037=

Estación: SCBA
METAR SCBA 242200Z 15006KT 9999 FEW040 M00/M05 Q1021=

TAF SCBA 241655Z 2418/2518 VRB02KT CAVOK TX03/2419Z TNM09/2510Z BECMG 2422/2500 9999 SCT040 TEMPO 2506/2512 BKN010=

Estación: SCCC
METAR SCCC 222000Z 14006KT CAVOK 06/M02 Q1010=

TAF SCCC NIL=

Estación: SCHR
METAR SCHR 222000Z 33013KT 9999 FEW040 06/M02 Q1010=

TAF SCHR 221052Z 2212/2300 27010KT 9999 FEW015 TNM01/2212Z TX05/2218Z TEMPO 2215/2219 SCT030=


Volver